MMCP/CPE METAR and TAF weather

Enter ICAO airport designator
Station Type Date Time Source
MMCP METAR 2020/07/03 23:45 UTC NOAA

MMCP 032345Z 00000KT 7SM SCT150 OVC280 26/24 A2994 RMK SLP126 52001 909 8/022 HZY


Station Type Date Time Source
MMCP Decoded METAR 2020/07/03 23:45 UTC NOAA

Campeche, Camp., Mexico (MMCP) 19-51N 090-33W
Jul 03, 2020 - 07:45 PM EDT / 2020.07.03 2345 UTC
Wind: Calm:0
Visibility: 7 mile(s):0
Sky conditions: overcast
Temperature: 78 F (26 C)
Dew Point: 75 F (24 C)
Relative Humidity: 88%
Pressure (altimeter): 29.94 in. Hg (1013 hPa)
Pressure tendency: 0.00 inches (0.1 hPa) higher than three hours ago
ob: MMCP 032345Z 00000KT 7SM SCT150 OVC280 26/24 A2994 RMK SLP126 52001 909 8/022 HZY
cycle: 0

Station Type Date Time Source
MMCP TAF 2020/07/04 06:20 UTC NOAA

TAF MMCP 040513Z 0406/0506 06008KT P6SM SCT020 SCT080
FM041600 13010KT P6SM SCT020 PROB40 0420/0424 5SM TSRA BKN020CB
FM050200 08005KT P6SM SCT020 BKN100

Example: see airport list